sensor_id;sensor_type;location;lat;lon;timestamp;temperature;humidity
69359;HTU21D;56520;49.066;8.660;2022-07-30T00:01:03;19.32;64.05
69359;HTU21D;56520;49.066;8.660;2022-07-30T00:03:28;19.27;64.30
69359;HTU21D;56520;49.066;8.660;2022-07-30T00:05:54;19.22;64.45
69359;HTU21D;56520;49.066;8.660;2022-07-30T00:08:24;19.14;64.55
69359;HTU21D;56520;49.066;8.660;2022-07-30T00:10:50;19.08;64.63
69359;HTU21D;56520;49.066;8.660;2022-07-30T00:13:16;19.01;65.31
69359;HTU21D;56520;49.066;8.660;2022-07-30T00:15:41;18.95;65.26
69359;HTU21D;56520;49.066;8.660;2022-07-30T00:18:07;18.92;65.46
69359;HTU21D;56520;49.066;8.660;2022-07-30T00:20:32;18.87;66.17
69359;HTU21D;56520;49.066;8.660;2022-07-30T00:23:02;18.83;65.81
69359;HTU21D;56520;49.066;8.660;2022-07-30T00:25:28;18.76;65.86
69359;HTU21D;56520;49.066;8.660;2022-07-30T00:27:53;18.73;65.98
69359;HTU21D;56520;49.066;8.660;2022-07-30T00:30:19;18.69;66.07
69359;HTU21D;56520;49.066;8.660;2022-07-30T00:32:44;18.67;66.35
69359;HTU21D;56520;49.066;8.660;2022-07-30T00:35:10;18.62;66.52
69359;HTU21D;56520;49.066;8.660;2022-07-30T00:37:35;18.55;66.96
69359;HTU21D;56520;49.066;8.660;2022-07-30T00:40:01;18.51;66.99
69359;HTU21D;56520;49.066;8.660;2022-07-30T00:42:40;18.47;67.21
69359;HTU21D;56520;49.066;8.660;2022-07-30T00:45:06;18.43;67.54
69359;HTU21D;56520;49.066;8.660;2022-07-30T00:47:32;18.39;67.62
69359;HTU21D;56520;49.066;8.660;2022-07-30T00:49:57;18.33;67.84
69359;HTU21D;56520;49.066;8.660;2022-07-30T00:52:23;18.28;68.42
69359;HTU21D;56520;49.066;8.660;2022-07-30T00:54:48;18.25;68.48
69359;HTU21D;56520;49.066;8.660;2022-07-30T00:57:14;18.21;68.63
69359;HTU21D;56520;49.066;8.660;2022-07-30T00:59:39;18.15;69.07
69359;HTU21D;56520;49.066;8.660;2022-07-30T01:02:05;18.13;69.03
69359;HTU21D;56520;49.066;8.660;2022-07-30T01:04:30;18.08;69.05
69359;HTU21D;56520;49.066;8.660;2022-07-30T01:06:56;18.06;69.39
69359;HTU21D;56520;49.066;8.660;2022-07-30T01:09:21;18.02;69.47
69359;HTU21D;56520;49.066;8.660;2022-07-30T01:11:46;17.95;69.71
69359;HTU21D;56520;49.066;8.660;2022-07-30T01:14:12;17.90;69.87
69359;HTU21D;56520;49.066;8.660;2022-07-30T01:16:40;17.83;69.92
69359;HTU21D;56520;49.066;8.660;2022-07-30T01:19:25;17.79;69.89
69359;HTU21D;56520;49.066;8.660;2022-07-30T01:25:00;17.72;70.14
69359;HTU21D;56520;49.066;8.660;2022-07-30T01:27:31;17.67;70.30
69359;HTU21D;56520;49.066;8.660;2022-07-30T01:29:58;17.64;70.71
69359;HTU21D;56520;49.066;8.660;2022-07-30T01:32:26;17.60;70.81
69359;HTU21D;56520;49.066;8.660;2022-07-30T01:34:54;17.55;70.80
69359;HTU21D;56520;49.066;8.660;2022-07-30T01:37:21;17.53;71.00
69359;HTU21D;56520;49.066;8.660;2022-07-30T01:39:49;17.50;71.05
69359;HTU21D;56520;49.066;8.660;2022-07-30T01:42:16;17.49;71.23
69359;HTU21D;56520;49.066;8.660;2022-07-30T01:44:44;17.41;71.50
69359;HTU21D;56520;49.066;8.660;2022-07-30T01:47:12;17.35;71.93
69359;HTU21D;56520;49.066;8.660;2022-07-30T01:49:39;17.29;72.41
69359;HTU21D;56520;49.066;8.660;2022-07-30T01:52:07;17.18;72.65
69359;HTU21D;56520;49.066;8.660;2022-07-30T01:54:33;17.09;72.65
69359;HTU21D;56520;49.066;8.660;2022-07-30T01:57:00;17.01;72.74
69359;HTU21D;56520;49.066;8.660;2022-07-30T01:59:27;16.94;73.77
69359;HTU21D;56520;49.066;8.660;2022-07-30T02:01:53;16.82;73.96
69359;HTU21D;56520;49.066;8.660;2022-07-30T02:04:18;16.73;74.25
69359;HTU21D;56520;49.066;8.660;2022-07-30T02:06:58;16.63;74.50
69359;HTU21D;56520;49.066;8.660;2022-07-30T02:09:34;16.54;74.22
69359;HTU21D;56520;49.066;8.660;2022-07-30T02:12:01;16.52;74.23
69359;HTU21D;56520;49.066;8.660;2022-07-30T02:14:51;16.49;74.19
69359;HTU21D;56520;49.066;8.660;2022-07-30T02:17:22;16.46;74.21
69359;HTU21D;56520;49.066;8.660;2022-07-30T02:19:52;16.46;74.15
69359;HTU21D;56520;49.066;8.660;2022-07-30T02:22:19;16.47;74.12
69359;HTU21D;56520;49.066;8.660;2022-07-30T02:24:47;16.47;74.23
69359;HTU21D;56520;49.066;8.660;2022-07-30T02:27:21;16.47;74.51
69359;HTU21D;56520;49.066;8.660;2022-07-30T02:29:49;16.47;74.58
69359;HTU21D;56520;49.066;8.660;2022-07-30T02:32:18;16.47;74.67
69359;HTU21D;56520;49.066;8.660;2022-07-30T02:34:48;16.44;74.85
69359;HTU21D;56520;49.066;8.660;2022-07-30T02:37:14;16.43;75.01
69359;HTU21D;56520;49.066;8.660;2022-07-30T02:39:41;16.39;75.02
69359;HTU21D;56520;49.066;8.660;2022-07-30T02:42:07;16.37;75.24
69359;HTU21D;56520;49.066;8.660;2022-07-30T02:44:36;16.40;75.34
69359;HTU21D;56520;49.066;8.660;2022-07-30T02:47:03;16.40;75.27
69359;HTU21D;56520;49.066;8.660;2022-07-30T02:49:30;16.39;75.41
69359;HTU21D;56520;49.066;8.660;2022-07-30T02:51:57;16.37;75.48
69359;HTU21D;56520;49.066;8.660;2022-07-30T02:54:24;16.36;75.49
69359;HTU21D;56520;49.066;8.660;2022-07-30T02:56:52;16.35;75.50
69359;HTU21D;56520;49.066;8.660;2022-07-30T02:59:19;16.31;75.73
69359;HTU21D;56520;49.066;8.660;2022-07-30T03:01:46;16.28;75.68
69359;HTU21D;56520;49.066;8.660;2022-07-30T03:04:13;16.27;75.97
69359;HTU21D;56520;49.066;8.660;2022-07-30T03:06:40;16.25;75.96
69359;HTU21D;56520;49.066;8.660;2022-07-30T03:09:08;16.22;76.25
69359;HTU21D;56520;49.066;8.660;2022-07-30T03:11:34;16.22;76.14
69359;HTU21D;56520;49.066;8.660;2022-07-30T03:14:00;16.20;76.25
69359;HTU21D;56520;49.066;8.660;2022-07-30T03:16:27;16.19;76.49
69359;HTU21D;56520;49.066;8.660;2022-07-30T03:18:54;16.17;76.47
69359;HTU21D;56520;49.066;8.660;2022-07-30T03:21:24;16.16;76.66
69359;HTU21D;56520;49.066;8.660;2022-07-30T03:23:54;16.15;76.79
69359;HTU21D;56520;49.066;8.660;2022-07-30T03:26:19;16.14;76.73
69359;HTU21D;56520;49.066;8.660;2022-07-30T03:28:46;16.12;76.90
69359;HTU21D;56520;49.066;8.660;2022-07-30T03:31:13;16.10;76.94
69359;HTU21D;56520;49.066;8.660;2022-07-30T03:33:39;16.07;76.97
69359;HTU21D;56520;49.066;8.660;2022-07-30T03:36:07;16.05;77.12
69359;HTU21D;56520;49.066;8.660;2022-07-30T03:38:35;16.03;77.01
69359;HTU21D;56520;49.066;8.660;2022-07-30T03:41:01;15.98;77.11
69359;HTU21D;56520;49.066;8.660;2022-07-30T03:43:28;15.95;77.18
69359;HTU21D;56520;49.066;8.660;2022-07-30T03:45:54;15.90;77.25
69359;HTU21D;56520;49.066;8.660;2022-07-30T03:48:22;15.89;77.31
69359;HTU21D;56520;49.066;8.660;2022-07-30T03:50:48;15.88;77.37
69359;HTU21D;56520;49.066;8.660;2022-07-30T03:53:14;15.86;77.31
69359;HTU21D;56520;49.066;8.660;2022-07-30T03:55:41;15.85;77.32
69359;HTU21D;56520;49.066;8.660;2022-07-30T03:58:07;15.82;77.62
69359;HTU21D;56520;49.066;8.660;2022-07-30T04:00:34;15.82;77.64
69359;HTU21D;56520;49.066;8.660;2022-07-30T04:02:59;15.81;77.72
69359;HTU21D;56520;49.066;8.660;2022-07-30T04:05:25;15.78;77.68
69359;HTU21D;56520;49.066;8.660;2022-07-30T04:07:50;15.76;77.82
69359;HTU21D;56520;49.066;8.660;2022-07-30T04:10:16;15.77;77.79
69359;HTU21D;56520;49.066;8.660;2022-07-30T04:12:41;15.77;77.88
69359;HTU21D;56520;49.066;8.660;2022-07-30T04:15:08;15.76;77.94
69359;HTU21D;56520;49.066;8.660;2022-07-30T04:17:35;15.77;78.02
69359;HTU21D;56520;49.066;8.660;2022-07-30T04:20:09;15.78;78.05
69359;HTU21D;56520;49.066;8.660;2022-07-30T04:22:37;15.80;78.05
69359;HTU21D;56520;49.066;8.660;2022-07-30T04:25:04;15.82;78.10
69359;HTU21D;56520;49.066;8.660;2022-07-30T04:27:34;15.83;78.11
69359;HTU21D;56520;49.066;8.660;2022-07-30T04:30:00;15.81;78.06
69359;HTU21D;56520;49.066;8.660;2022-07-30T04:32:26;15.82;78.18
69359;HTU21D;56520;49.066;8.660;2022-07-30T04:34:53;15.84;78.11
69359;HTU21D;56520;49.066;8.660;2022-07-30T04:37:23;15.87;78.14
69359;HTU21D;56520;49.066;8.660;2022-07-30T04:39:50;15.86;78.11
69359;HTU21D;56520;49.066;8.660;2022-07-30T04:42:22;15.89;78.14
69359;HTU21D;56520;49.066;8.660;2022-07-30T04:44:48;15.91;78.26
69359;HTU21D;56520;49.066;8.660;2022-07-30T04:47:14;15.91;78.21
69359;HTU21D;56520;49.066;8.660;2022-07-30T04:49:41;15.93;78.27
69359;HTU21D;56520;49.066;8.660;2022-07-30T04:52:08;15.96;78.35
69359;HTU21D;56520;49.066;8.660;2022-07-30T04:54:53;15.98;78.36
69359;HTU21D;56520;49.066;8.660;2022-07-30T04:57:20;16.05;78.37
69359;HTU21D;56520;49.066;8.660;2022-07-30T04:59:45;16.10;78.30
69359;HTU21D;56520;49.066;8.660;2022-07-30T05:02:11;16.16;78.19
69359;HTU21D;56520;49.066;8.660;2022-07-30T05:04:40;16.21;78.12
69359;HTU21D;56520;49.066;8.660;2022-07-30T05:07:06;16.28;78.11
69359;HTU21D;56520;49.066;8.660;2022-07-30T05:09:32;16.34;78.14
69359;HTU21D;56520;49.066;8.660;2022-07-30T05:11:58;16.42;78.11
69359;HTU21D;56520;49.066;8.660;2022-07-30T05:14:24;16.48;77.92
69359;HTU21D;56520;49.066;8.660;2022-07-30T05:16:51;16.56;77.91
69359;HTU21D;56520;49.066;8.660;2022-07-30T05:19:18;16.63;77.73
69359;HTU21D;56520;49.066;8.660;2022-07-30T05:21:43;16.72;77.70
69359;HTU21D;56520;49.066;8.660;2022-07-30T05:24:09;16.81;77.56
69359;HTU21D;56520;49.066;8.660;2022-07-30T05:26:34;16.89;77.56
69359;HTU21D;56520;49.066;8.660;2022-07-30T05:29:00;17.00;77.40
69359;HTU21D;56520;49.066;8.660;2022-07-30T05:31:25;17.09;77.32
69359;HTU21D;56520;49.066;8.660;2022-07-30T05:33:51;17.20;77.09
69359;HTU21D;56520;49.066;8.660;2022-07-30T05:36:18;17.28;77.04
69359;HTU21D;56520;49.066;8.660;2022-07-30T05:38:43;17.39;76.87
69359;HTU21D;56520;49.066;8.660;2022-07-30T05:41:08;17.49;76.81
69359;HTU21D;56520;49.066;8.660;2022-07-30T05:43:34;17.63;76.54
69359;HTU21D;56520;49.066;8.660;2022-07-30T05:45:59;17.73;76.34
69359;HTU21D;56520;49.066;8.660;2022-07-30T05:48:25;17.82;76.20
69359;HTU21D;56520;49.066;8.660;2022-07-30T05:50:51;17.97;75.67
69359;HTU21D;56520;49.066;8.660;2022-07-30T05:53:17;18.15;75.09
69359;HTU21D;56520;49.066;8.660;2022-07-30T05:55:42;18.36;74.32
69359;HTU21D;56520;49.066;8.660;2022-07-30T05:58:08;18.54;73.71
69359;HTU21D;56520;49.066;8.660;2022-07-30T06:00:34;18.79;71.93
69359;HTU21D;56520;49.066;8.660;2022-07-30T06:03:00;18.94;71.28
69359;HTU21D;56520;49.066;8.660;2022-07-30T06:05:26;19.11;70.36
69359;HTU21D;56520;49.066;8.660;2022-07-30T06:07:52;19.25;69.58
69359;HTU21D;56520;49.066;8.660;2022-07-30T06:10:18;19.42;68.96
69359;HTU21D;56520;49.066;8.660;2022-07-30T06:12:43;19.55;68.20
69359;HTU21D;56520;49.066;8.660;2022-07-30T06:15:09;19.68;68.10
69359;HTU21D;56520;49.066;8.660;2022-07-30T06:17:43;19.77;67.76
69359;HTU21D;56520;49.066;8.660;2022-07-30T06:20:13;19.92;66.85
69359;HTU21D;56520;49.066;8.660;2022-07-30T06:22:39;20.09;65.78
69359;HTU21D;56520;49.066;8.660;2022-07-30T06:25:06;20.20;65.16
69359;HTU21D;56520;49.066;8.660;2022-07-30T06:27:33;20.29;65.05
69359;HTU21D;56520;49.066;8.660;2022-07-30T06:30:08;20.37;65.01
69359;HTU21D;56520;49.066;8.660;2022-07-30T06:32:34;20.44;64.55
69359;HTU21D;56520;49.066;8.660;2022-07-30T06:35:00;20.53;64.59
69359;HTU21D;56520;49.066;8.660;2022-07-30T06:37:25;20.62;63.46
69359;HTU21D;56520;49.066;8.660;2022-07-30T06:39:51;20.75;62.61
69359;HTU21D;56520;49.066;8.660;2022-07-30T06:42:16;20.89;61.21
69359;HTU21D;56520;49.066;8.660;2022-07-30T06:44:42;20.99;60.87
69359;HTU21D;56520;49.066;8.660;2022-07-30T06:47:08;21.03;61.21
69359;HTU21D;56520;49.066;8.660;2022-07-30T06:49:34;21.11;61.27
69359;HTU21D;56520;49.066;8.660;2022-07-30T06:52:00;21.17;61.30
69359;HTU21D;56520;49.066;8.660;2022-07-30T06:54:26;21.22;61.32
69359;HTU21D;56520;49.066;8.660;2022-07-30T06:56:52;21.30;60.31
69359;HTU21D;56520;49.066;8.660;2022-07-30T06:59:20;21.42;59.87
69359;HTU21D;56520;49.066;8.660;2022-07-30T07:01:46;21.46;59.51
69359;HTU21D;56520;49.066;8.660;2022-07-30T07:04:11;21.50;59.85
69359;HTU21D;56520;49.066;8.660;2022-07-30T07:06:37;21.58;59.22
69359;HTU21D;56520;49.066;8.660;2022-07-30T07:09:03;21.69;58.28
69359;HTU21D;56520;49.066;8.660;2022-07-30T07:11:28;21.82;58.23
69359;HTU21D;56520;49.066;8.660;2022-07-30T07:13:54;21.92;58.48
69359;HTU21D;56520;49.066;8.660;2022-07-30T07:16:19;22.11;57.16
69359;HTU21D;56520;49.066;8.660;2022-07-30T07:18:53;22.32;57.10
69359;HTU21D;56520;49.066;8.660;2022-07-30T07:21:20;22.50;56.39
69359;HTU21D;56520;49.066;8.660;2022-07-30T07:23:45;22.60;56.79
69359;HTU21D;56520;49.066;8.660;2022-07-30T07:26:13;22.70;56.26
69359;HTU21D;56520;49.066;8.660;2022-07-30T07:28:38;22.78;56.08
69359;HTU21D;56520;49.066;8.660;2022-07-30T07:31:04;22.85;55.78
69359;HTU21D;56520;49.066;8.660;2022-07-30T07:33:30;22.87;55.93
69359;HTU21D;56520;49.066;8.660;2022-07-30T07:35:55;22.91;55.34
69359;HTU21D;56520;49.066;8.660;2022-07-30T07:38:21;22.87;54.94
69359;HTU21D;56520;49.066;8.660;2022-07-30T07:40:46;22.80;55.72
69359;HTU21D;56520;49.066;8.660;2022-07-30T07:43:12;22.80;56.00
69359;HTU21D;56520;49.066;8.660;2022-07-30T07:45:39;22.81;55.94
69359;HTU21D;56520;49.066;8.660;2022-07-30T07:48:05;22.80;55.77
69359;HTU21D;56520;49.066;8.660;2022-07-30T07:50:31;22.82;55.44
69359;HTU21D;56520;49.066;8.660;2022-07-30T07:53:01;22.86;55.36
69359;HTU21D;56520;49.066;8.660;2022-07-30T07:55:29;22.91;55.24
69359;HTU21D;56520;49.066;8.660;2022-07-30T07:57:55;22.90;55.62
69359;HTU21D;56520;49.066;8.660;2022-07-30T08:00:20;22.94;55.45
69359;HTU21D;56520;49.066;8.660;2022-07-30T08:02:46;23.01;55.39
69359;HTU21D;56520;49.066;8.660;2022-07-30T08:05:12;23.12;54.94
69359;HTU21D;56520;49.066;8.660;2022-07-30T08:07:39;23.20;54.59
69359;HTU21D;56520;49.066;8.660;2022-07-30T08:10:05;23.16;54.12
69359;HTU21D;56520;49.066;8.660;2022-07-30T08:12:31;23.07;54.64
69359;HTU21D;56520;49.066;8.660;2022-07-30T08:14:56;23.11;54.53
69359;HTU21D;56520;49.066;8.660;2022-07-30T08:17:22;23.21;53.30
69359;HTU21D;56520;49.066;8.660;2022-07-30T08:19:47;23.29;53.30
69359;HTU21D;56520;49.066;8.660;2022-07-30T08:22:13;23.39;53.42
69359;HTU21D;56520;49.066;8.660;2022-07-30T08:24:39;23.45;53.64
69359;HTU21D;56520;49.066;8.660;2022-07-30T08:27:04;23.61;52.82
69359;HTU21D;56520;49.066;8.660;2022-07-30T08:29:29;23.70;51.46
69359;HTU21D;56520;49.066;8.660;2022-07-30T08:31:55;23.80;50.73
69359;HTU21D;56520;49.066;8.660;2022-07-30T08:34:21;23.92;49.31
69359;HTU21D;56520;49.066;8.660;2022-07-30T08:36:46;24.04;49.92
69359;HTU21D;56520;49.066;8.660;2022-07-30T08:39:12;24.14;50.32
69359;HTU21D;56520;49.066;8.660;2022-07-30T08:41:38;24.24;49.43
69359;HTU21D;56520;49.066;8.660;2022-07-30T08:44:04;24.41;49.11
69359;HTU21D;56520;49.066;8.660;2022-07-30T08:46:33;24.46;48.58
69359;HTU21D;56520;49.066;8.660;2022-07-30T08:49:00;24.45;49.56
69359;HTU21D;56520;49.066;8.660;2022-07-30T08:51:26;24.51;48.70
69359;HTU21D;56520;49.066;8.660;2022-07-30T08:53:52;24.54;48.91
69359;HTU21D;56520;49.066;8.660;2022-07-30T08:56:18;24.65;48.01
69359;HTU21D;56520;49.066;8.660;2022-07-30T08:58:44;24.71;48.89
69359;HTU21D;56520;49.066;8.660;2022-07-30T09:01:10;24.97;47.57
69359;HTU21D;56520;49.066;8.660;2022-07-30T09:03:37;25.13;48.06
69359;HTU21D;56520;49.066;8.660;2022-07-30T09:06:03;25.33;47.34
69359;HTU21D;56520;49.066;8.660;2022-07-30T09:08:30;25.58;45.63
69359;HTU21D;56520;49.066;8.660;2022-07-30T09:10:56;25.60;45.67
69359;HTU21D;56520;49.066;8.660;2022-07-30T09:13:27;25.39;45.54
69359;HTU21D;56520;49.066;8.660;2022-07-30T09:15:53;25.23;44.57
69359;HTU21D;56520;49.066;8.660;2022-07-30T09:18:33;25.28;45.04
69359;HTU21D;56520;49.066;8.660;2022-07-30T09:21:00;25.52;44.74
69359;HTU21D;56520;49.066;8.660;2022-07-30T09:23:26;25.73;43.80
69359;HTU21D;56520;49.066;8.660;2022-07-30T09:25:52;25.96;44.43
69359;HTU21D;56520;49.066;8.660;2022-07-30T09:28:27;26.32;42.88
69359;HTU21D;56520;49.066;8.660;2022-07-30T09:30:54;26.48;42.29
69359;HTU21D;56520;49.066;8.660;2022-07-30T09:36:08;26.60;41.68
69359;HTU21D;56520;49.066;8.660;2022-07-30T09:41:10;26.69;39.24
69359;HTU21D;56520;49.066;8.660;2022-07-30T09:44:03;26.83;40.59
69359;HTU21D;56520;49.066;8.660;2022-07-30T09:49:14;26.46;39.73
69359;HTU21D;56520;49.066;8.660;2022-07-30T09:51:39;26.28;39.59
69359;HTU21D;56520;49.066;8.660;2022-07-30T09:54:05;26.04;39.67
69359;HTU21D;56520;49.066;8.660;2022-07-30T09:56:30;25.98;40.77
69359;HTU21D;56520;49.066;8.660;2022-07-30T09:58:56;26.32;40.42
69359;HTU21D;56520;49.066;8.660;2022-07-30T10:01:21;26.53;40.84
69359;HTU21D;56520;49.066;8.660;2022-07-30T10:03:47;26.90;39.51
69359;HTU21D;56520;49.066;8.660;2022-07-30T10:06:13;27.30;35.89
69359;HTU21D;56520;49.066;8.660;2022-07-30T10:08:40;27.55;36.88
69359;HTU21D;56520;49.066;8.660;2022-07-30T10:11:11;27.80;36.21
69359;HTU21D;56520;49.066;8.660;2022-07-30T10:13:37;27.87;35.04
69359;HTU21D;56520;49.066;8.660;2022-07-30T10:16:04;27.85;35.99
69359;HTU21D;56520;49.066;8.660;2022-07-30T10:18:30;27.78;36.95
69359;HTU21D;56520;49.066;8.660;2022-07-30T10:20:56;27.55;37.41
69359;HTU21D;56520;49.066;8.660;2022-07-30T10:23:22;27.74;38.48
69359;HTU21D;56520;49.066;8.660;2022-07-30T10:25:55;28.18;36.23
69359;HTU21D;56520;49.066;8.660;2022-07-30T10:28:22;28.42;36.05
69359;HTU21D;56520;49.066;8.660;2022-07-30T10:30:52;28.21;35.85
69359;HTU21D;56520;49.066;8.660;2022-07-30T10:33:17;27.78;36.59
69359;HTU21D;56520;49.066;8.660;2022-07-30T10:35:44;27.73;35.93
69359;HTU21D;56520;49.066;8.660;2022-07-30T10:38:10;27.81;36.09
69359;HTU21D;56520;49.066;8.660;2022-07-30T10:40:41;27.88;36.22
69359;HTU21D;56520;49.066;8.660;2022-07-30T10:43:48;28.05;37.14
69359;HTU21D;56520;49.066;8.660;2022-07-30T10:49:10;28.90;35.11
69359;HTU21D;56520;49.066;8.660;2022-07-30T10:54:34;29.29;34.93
69359;HTU21D;56520;49.066;8.660;2022-07-30T11:02:15;29.61;33.66
69359;HTU21D;56520;49.066;8.660;2022-07-30T11:04:41;29.56;34.35
69359;HTU21D;56520;49.066;8.660;2022-07-30T11:09:55;29.71;34.14
69359;HTU21D;56520;49.066;8.660;2022-07-30T11:15:15;29.98;34.47
69359;HTU21D;56520;49.066;8.660;2022-07-30T11:20:22;30.19;34.28
69359;HTU21D;56520;49.066;8.660;2022-07-30T11:22:47;30.38;33.77
69359;HTU21D;56520;49.066;8.660;2022-07-30T11:27:54;30.57;33.93
69359;HTU21D;56520;49.066;8.660;2022-07-30T11:32:46;30.72;33.09
69359;HTU21D;56520;49.066;8.660;2022-07-30T11:35:31;30.90;33.60
69359;HTU21D;56520;49.066;8.660;2022-07-30T11:38:09;31.24;33.69
69359;HTU21D;56520;49.066;8.660;2022-07-30T11:43:28;31.53;31.74
69359;HTU21D;56520;49.066;8.660;2022-07-30T11:46:12;31.41;30.12
69359;HTU21D;56520;49.066;8.660;2022-07-30T11:51:22;31.34;30.30
69359;HTU21D;56520;49.066;8.660;2022-07-30T11:54:05;31.44;29.56
69359;HTU21D;56520;49.066;8.660;2022-07-30T11:56:32;31.43;30.29
69359;HTU21D;56520;49.066;8.660;2022-07-30T11:59:03;31.46;29.92
69359;HTU21D;56520;49.066;8.660;2022-07-30T12:01:29;31.28;29.35
69359;HTU21D;56520;49.066;8.660;2022-07-30T12:03:55;31.01;30.53
69359;HTU21D;56520;49.066;8.660;2022-07-30T12:06:21;30.80;30.00
69359;HTU21D;56520;49.066;8.660;2022-07-30T12:08:49;30.25;30.74
69359;HTU21D;56520;49.066;8.660;2022-07-30T12:11:15;29.79;31.86
69359;HTU21D;56520;49.066;8.660;2022-07-30T12:13:42;29.95;32.86
69359;HTU21D;56520;49.066;8.660;2022-07-30T12:16:15;30.37;32.13
69359;HTU21D;56520;49.066;8.660;2022-07-30T12:18:41;30.33;31.55
69359;HTU21D;56520;49.066;8.660;2022-07-30T12:21:08;30.00;31.64
69359;HTU21D;56520;49.066;8.660;2022-07-30T12:23:37;29.57;32.39
69359;HTU21D;56520;49.066;8.660;2022-07-30T12:26:03;29.50;33.22
69359;HTU21D;56520;49.066;8.660;2022-07-30T12:28:31;29.96;31.98
69359;HTU21D;56520;49.066;8.660;2022-07-30T12:30:58;30.02;31.38
69359;HTU21D;56520;49.066;8.660;2022-07-30T12:33:24;30.20;31.35
69359;HTU21D;56520;49.066;8.660;2022-07-30T12:35:52;30.56;31.24
69359;HTU21D;56520;49.066;8.660;2022-07-30T12:38:19;30.67;30.16
69359;HTU21D;56520;49.066;8.660;2022-07-30T12:41:04;30.54;29.77
69359;HTU21D;56520;49.066;8.660;2022-07-30T12:46:22;30.23;30.67
69359;HTU21D;56520;49.066;8.660;2022-07-30T12:48:54;29.93;30.90
69359;HTU21D;56520;49.066;8.660;2022-07-30T12:51:22;29.78;30.99
69359;HTU21D;56520;49.066;8.660;2022-07-30T12:53:48;29.96;30.90
69359;HTU21D;56520;49.066;8.660;2022-07-30T12:56:19;30.18;30.19
69359;HTU21D;56520;49.066;8.660;2022-07-30T12:58:45;30.51;30.13
69359;HTU21D;56520;49.066;8.660;2022-07-30T13:01:11;30.84;29.03
69359;HTU21D;56520;49.066;8.660;2022-07-30T13:03:36;30.87;28.83
69359;HTU21D;56520;49.066;8.660;2022-07-30T13:06:15;31.04;29.75
69359;HTU21D;56520;49.066;8.660;2022-07-30T13:08:52;31.31;29.44
69359;HTU21D;56520;49.066;8.660;2022-07-30T13:11:19;31.40;28.21
69359;HTU21D;56520;49.066;8.660;2022-07-30T13:13:46;31.23;28.21
69359;HTU21D;56520;49.066;8.660;2022-07-30T13:16:12;30.92;28.48
69359;HTU21D;56520;49.066;8.660;2022-07-30T13:18:38;30.59;28.32
69359;HTU21D;56520;49.066;8.660;2022-07-30T13:21:07;30.30;29.23
69359;HTU21D;56520;49.066;8.660;2022-07-30T13:23:39;30.37;29.42
69359;HTU21D;56520;49.066;8.660;2022-07-30T13:26:06;30.35;29.32
69359;HTU21D;56520;49.066;8.660;2022-07-30T13:28:32;30.39;29.69
69359;HTU21D;56520;49.066;8.660;2022-07-30T13:30:59;30.51;29.06
69359;HTU21D;56520;49.066;8.660;2022-07-30T13:33:25;30.70;29.53
69359;HTU21D;56520;49.066;8.660;2022-07-30T13:35:51;31.14;28.90
69359;HTU21D;56520;49.066;8.660;2022-07-30T13:38:17;31.43;27.52
69359;HTU21D;56520;49.066;8.660;2022-07-30T13:40:42;31.48;27.25
69359;HTU21D;56520;49.066;8.660;2022-07-30T13:43:08;31.18;27.84
69359;HTU21D;56520;49.066;8.660;2022-07-30T13:45:34;30.80;27.72
69359;HTU21D;56520;49.066;8.660;2022-07-30T13:48:00;30.37;28.25
69359;HTU21D;56520;49.066;8.660;2022-07-30T13:50:25;30.06;28.84
69359;HTU21D;56520;49.066;8.660;2022-07-30T13:52:51;29.82;29.39
69359;HTU21D;56520;49.066;8.660;2022-07-30T13:55:16;29.61;29.76
69359;HTU21D;56520;49.066;8.660;2022-07-30T13:57:41;29.39;30.22
69359;HTU21D;56520;49.066;8.660;2022-07-30T14:00:08;29.14;30.41
69359;HTU21D;56520;49.066;8.660;2022-07-30T14:02:34;29.06;30.77
69359;HTU21D;56520;49.066;8.660;2022-07-30T14:05:00;29.17;30.99
69359;HTU21D;56520;49.066;8.660;2022-07-30T14:07:34;29.13;30.58
69359;HTU21D;56520;49.066;8.660;2022-07-30T14:09:59;29.00;30.85
69359;HTU21D;56520;49.066;8.660;2022-07-30T14:12:25;28.94;31.35
69359;HTU21D;56520;49.066;8.660;2022-07-30T14:14:51;28.90;31.51
69359;HTU21D;56520;49.066;8.660;2022-07-30T14:17:16;28.88;31.77
69359;HTU21D;56520;49.066;8.660;2022-07-30T14:19:42;28.88;31.90
69359;HTU21D;56520;49.066;8.660;2022-07-30T14:22:07;28.87;31.83
69359;HTU21D;56520;49.066;8.660;2022-07-30T14:24:33;28.82;31.50
69359;HTU21D;56520;49.066;8.660;2022-07-30T14:26:58;28.72;31.77
69359;HTU21D;56520;49.066;8.660;2022-07-30T14:29:25;28.59;32.02
69359;HTU21D;56520;49.066;8.660;2022-07-30T14:31:50;28.60;32.57
69359;HTU21D;56520;49.066;8.660;2022-07-30T14:34:17;28.69;32.16
69359;HTU21D;56520;49.066;8.660;2022-07-30T14:36:43;28.62;32.14
69359;HTU21D;56520;49.066;8.660;2022-07-30T14:39:09;28.58;32.34
69359;HTU21D;56520;49.066;8.660;2022-07-30T14:41:34;28.74;32.33
69359;HTU21D;56520;49.066;8.660;2022-07-30T14:44:03;28.80;32.33
69359;HTU21D;56520;49.066;8.660;2022-07-30T14:46:28;28.71;32.56
69359;HTU21D;56520;49.066;8.660;2022-07-30T14:48:54;28.62;32.40
69359;HTU21D;56520;49.066;8.660;2022-07-30T14:51:19;28.67;32.64
69359;HTU21D;56520;49.066;8.660;2022-07-30T14:53:45;29.04;32.26
69359;HTU21D;56520;49.066;8.660;2022-07-30T14:56:11;29.54;31.81
69359;HTU21D;56520;49.066;8.660;2022-07-30T14:58:37;29.98;30.99
69359;HTU21D;56520;49.066;8.660;2022-07-30T15:01:03;30.21;30.42
69359;HTU21D;56520;49.066;8.660;2022-07-30T15:03:32;30.07;30.16
69359;HTU21D;56520;49.066;8.660;2022-07-30T15:05:58;29.73;30.50
69359;HTU21D;56520;49.066;8.660;2022-07-30T15:08:24;29.39;30.99
69359;HTU21D;56520;49.066;8.660;2022-07-30T15:10:49;29.21;31.15
69359;HTU21D;56520;49.066;8.660;2022-07-30T15:13:15;29.28;31.19
69359;HTU21D;56520;49.066;8.660;2022-07-30T15:15:40;29.49;31.11
69359;HTU21D;56520;49.066;8.660;2022-07-30T15:18:06;29.52;30.64
69359;HTU21D;56520;49.066;8.660;2022-07-30T15:20:31;29.44;30.91
69359;HTU21D;56520;49.066;8.660;2022-07-30T15:22:56;29.30;31.37
69359;HTU21D;56520;49.066;8.660;2022-07-30T15:25:22;29.30;31.53
69359;HTU21D;56520;49.066;8.660;2022-07-30T15:27:48;29.36;31.00
69359;HTU21D;56520;49.066;8.660;2022-07-30T15:30:13;29.26;30.54
69359;HTU21D;56520;49.066;8.660;2022-07-30T15:32:39;29.12;30.51
69359;HTU21D;56520;49.066;8.660;2022-07-30T15:35:05;28.95;30.35
69359;HTU21D;56520;49.066;8.660;2022-07-30T15:37:31;28.83;30.58
69359;HTU21D;56520;49.066;8.660;2022-07-30T15:39:56;28.78;30.54
69359;HTU21D;56520;49.066;8.660;2022-07-30T15:42:22;28.79;30.13
69359;HTU21D;56520;49.066;8.660;2022-07-30T15:44:48;28.76;30.26
69359;HTU21D;56520;49.066;8.660;2022-07-30T15:47:13;29.08;30.09
69359;HTU21D;56520;49.066;8.660;2022-07-30T15:49:39;29.50;30.24
69359;HTU21D;56520;49.066;8.660;2022-07-30T15:52:05;29.81;28.99
69359;HTU21D;56520;49.066;8.660;2022-07-30T15:54:31;30.20;27.25
69359;HTU21D;56520;49.066;8.660;2022-07-30T15:56:57;30.23;27.72
69359;HTU21D;56520;49.066;8.660;2022-07-30T15:59:25;30.32;26.26